createdAt,value
2019-01-11T00:00:40.769Z,83.10
2019-01-11T00:03:09.153Z,82.10
2019-01-11T00:05:37.540Z,82.60
2019-01-11T00:08:06.005Z,82.10
2019-01-11T00:10:34.403Z,81.30
2019-01-11T00:13:02.766Z,82.50
2019-01-11T00:15:31.335Z,80.70
2019-01-11T00:17:59.662Z,80.40
2019-01-11T00:20:28.011Z,81.40
2019-01-11T00:22:56.321Z,81.30
2019-01-11T00:25:24.713Z,81.20
2019-01-11T00:27:53.174Z,81.70
2019-01-11T00:30:21.480Z,81.70
2019-01-11T00:32:49.956Z,82.20
2019-01-11T00:35:18.412Z,82.30
2019-01-11T00:37:49.506Z,83.50
2019-01-11T00:40:18.013Z,83.60
2019-01-11T00:42:46.372Z,82.40
2019-01-11T00:45:14.880Z,83.00
2019-01-11T00:47:43.270Z,81.80
2019-01-11T00:50:11.671Z,82.00
2019-01-11T00:52:40.069Z,81.50
2019-01-11T00:55:08.929Z,80.90
2019-01-11T00:57:37.231Z,82.80
2019-01-11T01:00:15.061Z,82.10
2019-01-11T01:02:43.439Z,82.80
2019-01-11T01:05:11.932Z,82.70
2019-01-11T01:07:40.293Z,82.00
2019-01-11T01:10:10.053Z,82.30
2019-01-11T01:12:38.493Z,81.90
2019-01-11T01:15:09.755Z,82.20
2019-01-11T01:17:38.126Z,82.40
2019-01-11T01:20:09.818Z,82.20
2019-01-11T01:22:38.175Z,81.50
2019-01-11T01:25:06.630Z,82.70
2019-01-11T01:27:35.377Z,82.90
2019-01-11T01:30:06.239Z,82.20
2019-01-11T01:32:34.609Z,81.50
2019-01-11T01:35:02.990Z,81.50
2019-01-11T01:37:32.620Z,81.50
2019-01-11T01:40:01.149Z,80.70
2019-01-11T01:42:29.502Z,80.90
2019-01-11T01:44:57.893Z,80.10
2019-01-11T01:47:26.189Z,81.30
2019-01-11T01:49:54.490Z,79.60
2019-01-11T01:52:22.784Z,80.20
2019-01-11T01:54:51.230Z,80.00
2019-01-11T01:57:19.669Z,79.90
2019-01-11T01:59:48.079Z,80.90
2019-01-11T02:02:16.441Z,80.50
2019-01-11T02:04:44.851Z,80.20
2019-01-11T02:07:13.316Z,80.30
2019-01-11T02:09:42.991Z,79.20
2019-01-11T02:12:11.486Z,79.60
2019-01-11T02:14:40.474Z,79.10
2019-01-11T02:17:08.830Z,79.80
2019-01-11T02:19:37.252Z,80.40
2019-01-11T02:22:05.670Z,78.70
2019-01-11T02:24:34.041Z,79.00
2019-01-11T02:27:02.366Z,79.30
2019-01-11T02:29:30.798Z,79.40
2019-01-11T02:31:59.149Z,79.70
2019-01-11T02:34:27.583Z,78.90
2019-01-11T02:36:55.951Z,78.30
2019-01-11T02:39:24.316Z,78.70
2019-01-11T02:41:52.798Z,78.20
2019-01-11T02:44:21.177Z,79.70
2019-01-11T02:46:49.582Z,79.80
2019-01-11T02:49:18.035Z,79.60
2019-01-11T02:51:46.474Z,79.40
2019-01-11T02:54:14.917Z,78.70
2019-01-11T02:56:43.397Z,78.60
2019-01-11T02:59:11.786Z,78.70
2019-01-11T03:01:40.222Z,80.10
2019-01-11T03:04:08.614Z,80.10
2019-01-11T03:06:36.958Z,80.50
2019-01-11T03:09:05.813Z,79.60
2019-01-11T03:11:34.210Z,80.00
2019-01-11T03:14:02.591Z,80.20
2019-01-11T03:16:31.122Z,81.10
2019-01-11T03:18:59.598Z,78.40
2019-01-11T03:21:28.020Z,80.10
2019-01-11T03:23:56.428Z,79.90
2019-01-11T03:26:24.891Z,80.30
2019-01-11T03:28:53.344Z,79.70
2019-01-11T03:31:23.385Z,78.70
2019-01-11T03:33:51.751Z,80.60
2019-01-11T03:36:20.049Z,81.40
2019-01-11T03:38:48.437Z,80.80
2019-01-11T03:41:16.850Z,81.20
2019-01-11T03:43:45.212Z,81.80
2019-01-11T03:46:13.602Z,81.80
2019-01-11T03:48:42.071Z,82.00
2019-01-11T03:51:10.473Z,82.10
2019-01-11T03:53:38.787Z,82.20
2019-01-11T03:56:07.218Z,81.80
2019-01-11T03:58:35.606Z,82.60
2019-01-11T04:01:03.999Z,80.60
2019-01-11T04:03:32.426Z,81.80
2019-01-11T04:06:00.806Z,82.10
2019-01-11T04:08:29.260Z,83.20
2019-01-11T04:10:57.685Z,81.40
2019-01-11T04:13:30.469Z,82.50
2019-01-11T04:15:56.704Z,82.70
2019-01-11T04:18:32.629Z,82.90
2019-01-11T04:21:00.999Z,82.00
2019-01-11T04:23:29.385Z,82.00
2019-01-11T04:25:57.800Z,83.00
2019-01-11T04:28:26.219Z,83.40
2019-01-11T04:30:54.747Z,84.10
2019-01-11T04:33:23.148Z,83.60
2019-01-11T04:35:51.626Z,83.80
2019-01-11T04:38:20.080Z,84.90
2019-01-11T04:40:48.447Z,83.80
2019-01-11T04:43:16.826Z,85.20
2019-01-11T04:45:45.223Z,84.50
2019-01-11T04:48:13.601Z,84.40
2019-01-11T04:50:42.046Z,84.90
2019-01-11T04:53:10.430Z,84.40
2019-01-11T04:55:38.792Z,84.90
2019-01-11T04:58:07.114Z,85.70
2019-01-11T05:00:35.505Z,85.90
2019-01-11T05:03:03.866Z,85.40
2019-01-11T05:05:32.293Z,85.70
2019-01-11T05:08:00.674Z,85.30
2019-01-11T05:10:29.104Z,85.50
2019-01-11T05:12:59.160Z,85.40
2019-01-11T05:15:27.529Z,86.30
2019-01-11T05:17:55.882Z,86.80
2019-01-11T05:20:24.265Z,87.10
2019-01-11T05:22:52.626Z,86.90
2019-01-11T05:25:21.077Z,87.60
2019-01-11T05:27:49.807Z,86.50
2019-01-11T05:30:18.287Z,86.60
2019-01-11T05:32:46.646Z,86.90
2019-01-11T05:35:15.009Z,86.50
2019-01-11T05:37:43.425Z,85.70
2019-01-11T05:40:14.969Z,85.60
2019-01-11T05:42:43.554Z,85.30
2019-01-11T05:45:11.959Z,84.50
2019-01-11T05:47:40.406Z,84.30
2019-01-11T05:50:11.764Z,84.80
2019-01-11T05:52:40.145Z,84.80
2019-01-11T05:55:10.703Z,84.60
2019-01-11T05:57:40.954Z,84.70
2019-01-11T06:00:10.762Z,85.00
2019-01-11T06:02:39.170Z,85.40
2019-01-11T06:05:08.800Z,86.00
2019-01-11T06:07:38.868Z,86.00
2019-01-11T06:10:10.724Z,85.50
2019-01-11T06:12:39.156Z,85.20
2019-01-11T06:15:18.089Z,84.90
2019-01-11T06:17:46.443Z,84.70
2019-01-11T06:20:15.478Z,84.10
2019-01-11T06:22:43.958Z,84.30
2019-01-11T06:25:12.350Z,84.20
2019-01-11T06:27:40.985Z,84.70
2019-01-11T06:30:12.056Z,84.80
2019-01-11T06:32:40.418Z,85.20
2019-01-11T06:35:08.942Z,84.90
2019-01-11T06:37:37.313Z,85.20
2019-01-11T06:40:08.639Z,86.00
2019-01-11T06:42:37.034Z,86.50
2019-01-11T06:45:09.676Z,85.70
2019-01-11T06:47:39.140Z,85.90
2019-01-11T06:50:11.026Z,85.90
2019-01-11T06:52:39.381Z,86.70
2019-01-11T06:55:08.476Z,87.10
2019-01-11T06:57:36.802Z,86.60
2019-01-11T07:00:08.499Z,87.50
2019-01-11T07:02:36.881Z,86.60
2019-01-11T07:05:07.974Z,86.80
2019-01-11T07:07:36.350Z,86.50
2019-01-11T07:10:10.744Z,86.90
2019-01-11T07:12:39.225Z,86.60
2019-01-11T07:15:09.833Z,85.80
2019-01-11T07:17:38.257Z,86.40
2019-01-11T07:20:12.222Z,86.70
2019-01-11T07:22:40.674Z,85.70
2019-01-11T07:25:11.255Z,84.80
2019-01-11T07:27:41.309Z,84.70
2019-01-11T07:30:12.709Z,84.70
2019-01-11T07:32:41.377Z,85.10
2019-01-11T07:35:10.399Z,83.90
2019-01-11T07:37:38.785Z,84.50
2019-01-11T07:40:11.874Z,84.20
2019-01-11T07:42:40.229Z,84.50
2019-01-11T07:45:13.385Z,83.40
2019-01-11T07:47:41.822Z,80.70
2019-01-11T07:50:10.599Z,81.90
2019-01-11T07:52:40.126Z,82.40
2019-01-11T07:55:09.652Z,81.50
2019-01-11T07:57:38.028Z,81.20
2019-01-11T08:00:11.918Z,81.60
2019-01-11T08:02:41.191Z,81.60
2019-01-11T08:05:09.602Z,81.20
2019-01-11T08:07:37.993Z,80.30
2019-01-11T08:10:11.786Z,81.20
2019-01-11T08:12:40.187Z,80.60
2019-01-11T08:15:11.452Z,78.80
2019-01-11T08:17:41.861Z,80.00
2019-01-11T08:20:10.232Z,79.20
2019-01-11T08:22:40.268Z,80.00
2019-01-11T08:25:09.342Z,78.40
2019-01-11T08:27:37.771Z,77.60
2019-01-11T08:30:09.373Z,76.30
2019-01-11T08:32:37.685Z,77.10
2019-01-11T08:35:09.437Z,77.20
2019-01-11T08:37:38.018Z,76.30
2019-01-11T08:40:09.022Z,77.00
2019-01-11T08:42:37.481Z,76.90
2019-01-11T08:45:09.979Z,77.10
2019-01-11T08:47:38.427Z,78.10
2019-01-11T08:50:12.900Z,76.70
2019-01-11T08:52:41.378Z,75.10
2019-01-11T08:55:09.764Z,76.00
2019-01-11T08:57:38.162Z,77.10
2019-01-11T09:00:10.132Z,76.40
2019-01-11T09:02:38.565Z,77.50
2019-01-11T09:05:07.750Z,77.10
2019-01-11T09:07:36.126Z,76.40
2019-01-11T09:10:07.758Z,77.20
2019-01-11T09:12:36.107Z,78.30
2019-01-11T09:15:07.616Z,77.70
2019-01-11T09:17:37.666Z,77.60
2019-01-11T09:20:07.183Z,76.00
2019-01-11T09:22:35.630Z,76.00
2019-01-11T09:25:04.888Z,76.70
2019-01-11T09:27:33.292Z,75.60
2019-01-11T09:30:01.704Z,75.60
2019-01-11T09:32:30.087Z,75.30
2019-01-11T09:34:58.952Z,75.80
2019-01-11T09:40:13.964Z,76.40
2019-01-11T09:42:42.331Z,76.50
2019-01-11T09:45:10.784Z,78.10
2019-01-11T09:47:39.185Z,76.10
2019-01-11T09:50:09.204Z,75.60
2019-01-11T09:52:37.690Z,73.20
2019-01-11T09:55:07.090Z,73.30
2019-01-11T09:57:35.999Z,74.20
2019-01-11T10:00:10.308Z,73.70
2019-01-11T10:02:39.828Z,75.30
2019-01-11T10:05:09.160Z,74.60
2019-01-11T10:07:37.523Z,74.10
2019-01-11T10:10:09.222Z,73.70
2019-01-11T10:12:37.614Z,73.00
2019-01-11T10:15:07.497Z,73.40
2019-01-11T10:17:35.978Z,73.50
2019-01-11T10:20:06.584Z,72.40
2019-01-11T10:22:34.978Z,73.90
2019-01-11T10:25:03.717Z,72.80
2019-01-11T10:27:32.450Z,73.60
2019-01-11T10:30:00.781Z,71.30
2019-01-11T10:32:29.161Z,72.10
2019-01-11T10:34:57.525Z,72.90
2019-01-11T10:37:25.913Z,72.80
2019-01-11T10:39:54.356Z,73.80
2019-01-11T10:42:22.770Z,73.50
2019-01-11T10:44:51.193Z,73.80
2019-01-11T10:47:19.657Z,73.20
2019-01-11T10:49:48.051Z,75.70
2019-01-11T10:52:16.530Z,75.10
2019-01-11T10:54:45.180Z,74.50
2019-01-11T10:57:13.608Z,74.40
2019-01-11T10:59:42.200Z,75.30
2019-01-11T11:02:10.551Z,75.70
2019-01-11T11:04:38.951Z,76.20
2019-01-11T11:07:07.468Z,74.50
2019-01-11T11:09:35.821Z,76.50
2019-01-11T11:12:04.475Z,75.30
2019-01-11T11:14:32.972Z,75.10
2019-01-11T11:17:01.346Z,76.40
2019-01-11T11:19:29.688Z,77.30
2019-01-11T11:21:58.115Z,75.20
2019-01-11T11:24:26.456Z,75.50
2019-01-11T11:26:54.839Z,76.00
2019-01-11T11:29:23.254Z,75.90
2019-01-11T11:31:51.660Z,76.00
2019-01-11T11:34:24.934Z,73.90
2019-01-11T11:36:53.297Z,76.00
2019-01-11T11:39:21.666Z,77.00
2019-01-11T11:41:50.060Z,76.90
2019-01-11T11:44:18.466Z,76.50
2019-01-11T11:46:46.842Z,76.90
2019-01-11T11:49:15.233Z,76.80
2019-01-11T11:51:43.543Z,76.10
2019-01-11T11:54:11.946Z,76.10
2019-01-11T11:56:40.306Z,75.70
2019-01-11T11:59:08.686Z,75.50
2019-01-11T12:01:37.167Z,76.20
2019-01-11T12:04:05.514Z,76.50
2019-01-11T12:06:33.939Z,78.10
2019-01-11T12:09:02.313Z,77.80
2019-01-11T12:11:35.101Z,77.80
2019-01-11T12:14:03.500Z,78.50
2019-01-11T12:16:31.910Z,78.20
2019-01-11T12:19:00.316Z,78.20
2019-01-11T12:21:28.655Z,78.60
2019-01-11T12:23:57.077Z,78.30
2019-01-11T12:26:25.801Z,78.30
2019-01-11T12:28:54.230Z,78.40
2019-01-11T12:31:22.774Z,79.50
2019-01-11T12:33:51.140Z,78.80
2019-01-11T12:36:19.526Z,79.00
2019-01-11T12:38:56.509Z,80.50
2019-01-11T12:41:25.285Z,79.90
2019-01-11T12:43:54.157Z,79.70
2019-01-11T12:46:22.554Z,80.70
2019-01-11T12:48:51.234Z,82.20
2019-01-11T12:51:19.610Z,82.90
2019-01-11T12:53:47.971Z,83.70
2019-01-11T12:56:16.350Z,84.10
2019-01-11T12:58:44.658Z,84.80
2019-01-11T13:01:13.102Z,84.60
2019-01-11T13:03:41.578Z,85.30
2019-01-11T13:06:10.030Z,85.00
2019-01-11T13:08:38.417Z,84.90
2019-01-11T13:11:06.866Z,85.50
2019-01-11T13:13:35.278Z,85.70
2019-01-11T13:16:03.709Z,84.70
2019-01-11T13:18:32.028Z,85.10
2019-01-11T13:21:00.398Z,85.50
2019-01-11T13:23:29.180Z,83.80
2019-01-11T13:25:57.581Z,85.50
2019-01-11T13:28:26.028Z,85.80
2019-01-11T13:30:54.514Z,86.40
2019-01-11T13:33:22.980Z,86.10
2019-01-11T13:35:51.331Z,86.80
2019-01-11T13:38:19.735Z,86.10
2019-01-11T13:40:48.238Z,87.30
2019-01-11T13:43:16.682Z,88.50
2019-01-11T13:45:45.258Z,89.40
2019-01-11T13:48:13.715Z,89.30
2019-01-11T13:50:42.219Z,89.20
2019-01-11T13:53:10.577Z,88.90
2019-01-11T13:55:38.904Z,89.70
2019-01-11T14:00:45.814Z,89.60
2019-01-11T14:03:14.161Z,89.30
2019-01-11T14:05:42.646Z,89.50
2019-01-11T14:08:11.093Z,89.50
2019-01-11T14:10:39.523Z,89.90
2019-01-11T14:13:07.873Z,90.20
2019-01-11T14:15:36.398Z,90.30
2019-01-11T14:18:04.787Z,90.00
2019-01-11T14:20:33.180Z,90.50
2019-01-11T14:23:01.504Z,90.40
2019-01-11T14:25:29.881Z,90.50
2019-01-11T14:27:58.327Z,90.80
2019-01-11T14:30:26.720Z,90.70
2019-01-11T14:32:55.280Z,90.90
2019-01-11T14:35:23.700Z,91.30
2019-01-11T14:37:52.118Z,90.90
2019-01-11T14:40:20.518Z,91.10
2019-01-11T14:42:48.911Z,91.00
2019-01-11T14:45:18.059Z,91.00
2019-01-11T14:47:54.338Z,91.40
2019-01-11T14:50:22.685Z,91.40
2019-01-11T14:52:51.094Z,91.20
2019-01-11T14:55:19.472Z,91.40
2019-01-11T14:57:47.920Z,91.50
2019-01-11T15:00:20.999Z,91.50
2019-01-11T15:02:49.481Z,91.50
2019-01-11T15:05:18.700Z,91.50
2019-01-11T15:07:47.077Z,91.60
2019-01-11T15:10:20.480Z,91.70
2019-01-11T15:12:50.527Z,91.60
2019-01-11T15:15:19.019Z,91.50
2019-01-11T15:17:47.465Z,91.80
2019-01-11T15:20:17.152Z,91.70
2019-01-11T15:22:45.896Z,91.90
2019-01-11T15:25:15.794Z,92.10
2019-01-11T15:27:44.250Z,92.10
2019-01-11T15:30:15.203Z,92.10
2019-01-11T15:32:43.607Z,92.00
2019-01-11T15:35:12.080Z,92.30
2019-01-11T15:37:40.477Z,92.30
2019-01-11T15:40:18.089Z,92.40
2019-01-11T15:42:46.534Z,92.00
2019-01-11T15:45:14.890Z,92.30
2019-01-11T15:47:43.294Z,92.30
2019-01-11T15:50:16.583Z,92.60
2019-01-11T15:52:45.064Z,92.20
2019-01-11T15:55:14.006Z,92.10
2019-01-11T15:57:42.646Z,92.30
2019-01-11T16:00:14.552Z,92.40
2019-01-11T16:02:42.960Z,92.60
2019-01-11T16:05:11.332Z,92.50
2019-01-11T16:07:44.506Z,92.70
2019-01-11T16:10:16.373Z,92.70
2019-01-11T16:12:45.204Z,92.60
2019-01-11T16:15:37.670Z,92.90
2019-01-11T16:18:09.412Z,92.60
2019-01-11T16:20:37.941Z,92.70
2019-01-11T16:23:06.352Z,92.90
2019-01-11T16:25:35.430Z,92.40
2019-01-11T16:28:04.247Z,92.60
2019-01-11T16:30:32.812Z,92.70
2019-01-11T16:33:01.280Z,92.90
2019-01-11T16:35:29.723Z,92.70
2019-01-11T16:37:58.089Z,92.70
2019-01-11T16:40:27.401Z,92.60
2019-01-11T16:42:55.843Z,92.60
2019-01-11T16:45:24.530Z,92.80
2019-01-11T16:47:52.906Z,92.90
2019-01-11T16:50:21.387Z,92.90
2019-01-11T16:52:49.816Z,92.90
2019-01-11T16:55:18.246Z,92.90
2019-01-11T16:57:46.616Z,92.80
2019-01-11T17:00:19.388Z,92.90
2019-01-11T17:02:47.757Z,93.00
2019-01-11T17:05:16.075Z,92.80
2019-01-11T17:07:44.587Z,92.90
2019-01-11T17:10:13.170Z,92.60
2019-01-11T17:12:42.322Z,92.60
2019-01-11T17:15:14.188Z,92.70
2019-01-11T17:17:44.530Z,92.60
2019-01-11T17:20:15.414Z,92.70
2019-01-11T17:22:43.886Z,92.90
2019-01-11T17:25:12.265Z,92.80
2019-01-11T17:27:40.685Z,93.00
2019-01-11T17:30:12.592Z,92.90
2019-01-11T17:32:41.120Z,92.60
2019-01-11T17:35:09.636Z,92.40
2019-01-11T17:37:38.083Z,92.90
2019-01-11T17:40:09.106Z,92.90
2019-01-11T17:42:37.679Z,93.10
2019-01-11T17:45:08.858Z,92.70
2019-01-11T17:47:37.276Z,92.70
2019-01-11T17:50:09.321Z,93.10
2019-01-11T17:52:37.703Z,92.60
2019-01-11T17:55:06.528Z,92.70
2019-01-11T17:57:34.835Z,92.80
2019-01-11T18:00:03.968Z,92.70
2019-01-11T18:02:32.515Z,92.70
2019-01-11T18:05:01.026Z,92.50
2019-01-11T18:07:29.501Z,92.40
2019-01-11T18:09:58.269Z,92.90
2019-01-11T18:12:26.738Z,92.60
2019-01-11T18:14:55.462Z,92.60
2019-01-11T18:17:24.221Z,92.20
2019-01-11T18:19:52.753Z,92.40
2019-01-11T18:22:21.229Z,92.00
2019-01-11T18:24:49.630Z,92.50
2019-01-11T18:27:18.057Z,92.30
2019-01-11T18:29:54.724Z,92.60
2019-01-11T18:32:24.219Z,92.90
2019-01-11T18:34:52.600Z,92.60
2019-01-11T18:37:21.101Z,92.60
2019-01-11T18:39:49.478Z,92.80
2019-01-11T18:42:18.013Z,92.30
2019-01-11T18:44:46.453Z,92.20
2019-01-11T18:47:14.955Z,92.60
2019-01-11T18:49:43.480Z,92.70
2019-01-11T18:52:12.043Z,92.70
2019-01-11T18:54:40.618Z,92.70
2019-01-11T18:57:09.073Z,93.00
2019-01-11T18:59:37.457Z,92.60
2019-01-11T19:02:05.940Z,93.00
2019-01-11T19:04:34.425Z,93.30
2019-01-11T19:07:02.900Z,93.40
2019-01-11T19:09:31.284Z,93.20
2019-01-11T19:11:59.660Z,93.00
2019-01-11T19:14:28.169Z,92.80
2019-01-11T19:16:56.664Z,93.60
2019-01-11T19:19:25.238Z,93.80
2019-01-11T19:21:53.793Z,93.40
2019-01-11T19:24:22.318Z,93.70
2019-01-11T19:26:50.773Z,93.80
2019-01-11T19:29:19.586Z,93.70
2019-01-11T19:31:47.989Z,93.50
2019-01-11T19:34:16.610Z,93.40
2019-01-11T19:36:45.177Z,93.90
2019-01-11T19:39:13.691Z,93.90
2019-01-11T19:41:42.156Z,93.50
2019-01-11T19:44:10.593Z,93.80
2019-01-11T19:46:39.004Z,93.70
2019-01-11T19:49:07.587Z,93.90
2019-01-11T19:51:53.688Z,93.50
2019-01-11T19:54:24.840Z,93.70
2019-01-11T19:56:53.542Z,93.40
2019-01-11T19:59:22.941Z,93.70
2019-01-11T20:01:51.802Z,93.80
2019-01-11T20:04:22.206Z,93.50
2019-01-11T20:06:52.820Z,93.50
2019-01-11T20:09:23.133Z,93.50
2019-01-11T20:11:51.934Z,93.30
2019-01-11T20:14:20.382Z,93.20
2019-01-11T20:16:48.909Z,93.20
2019-01-11T20:19:17.563Z,93.30
2019-01-11T20:21:48.439Z,93.10
2019-01-11T20:24:21.735Z,92.80
2019-01-11T20:26:50.257Z,93.10
2019-01-11T20:29:18.831Z,93.00
2019-01-11T20:31:49.028Z,93.20
2019-01-11T20:34:19.349Z,93.20
2019-01-11T20:36:51.208Z,93.10
2019-01-11T20:39:20.168Z,92.90
2019-01-11T20:41:48.713Z,93.00
2019-01-11T20:44:17.215Z,92.60
2019-01-11T20:46:45.673Z,93.10
2019-01-11T20:49:14.078Z,92.80
2019-01-11T20:51:47.010Z,92.80
2019-01-11T20:54:16.514Z,93.30
2019-01-11T20:56:47.859Z,92.90
2019-01-11T20:59:18.058Z,93.20
2019-01-11T21:01:47.283Z,92.90
2019-01-11T21:04:17.458Z,93.20
2019-01-11T21:06:47.926Z,93.30
2019-01-11T21:09:20.648Z,93.40
2019-01-11T21:11:52.523Z,93.50
2019-01-11T21:14:22.845Z,93.60
2019-01-11T21:16:51.726Z,93.50
2019-01-11T21:19:20.410Z,93.50
2019-01-11T21:21:54.883Z,93.60
2019-01-11T21:24:23.629Z,93.80
2019-01-11T21:26:52.679Z,93.60
2019-01-11T21:29:21.327Z,93.70
2019-01-11T21:31:53.968Z,93.80
2019-01-11T21:34:22.696Z,93.90
2019-01-11T21:36:54.138Z,93.70
2019-01-11T21:39:29.612Z,93.80
2019-01-11T21:44:59.653Z,93.70
2019-01-11T21:47:32.478Z,93.50
2019-01-11T22:32:55.375Z,92.60
2019-01-11T22:44:12.803Z,92.50
2019-01-11T22:46:45.564Z,92.40
2019-01-11T22:52:07.362Z,92.40
2019-01-11T22:54:39.058Z,92.20
2019-01-11T22:57:19.302Z,92.30
2019-01-11T22:59:55.003Z,92.00
2019-01-11T23:02:29.426Z,92.30
2019-01-11T23:05:00.589Z,92.30
2019-01-11T23:10:50.167Z,92.50
2019-01-11T23:13:20.513Z,92.50
2019-01-11T23:15:52.854Z,92.50
2019-01-11T23:18:22.089Z,92.50
2019-01-11T23:20:52.025Z,92.40
2019-01-11T23:23:20.792Z,92.40
2019-01-11T23:25:53.418Z,92.50
2019-01-11T23:28:22.518Z,92.40
2019-01-11T23:30:59.664Z,93.00
2019-01-11T23:33:30.364Z,93.10
2019-01-11T23:36:00.478Z,93.20
2019-01-11T23:38:29.216Z,93.20
2019-01-11T23:40:58.652Z,93.10
2019-01-11T23:43:28.681Z,93.20
2019-01-11T23:46:03.182Z,93.30
2019-01-11T23:48:33.817Z,93.30
2019-01-11T23:51:04.345Z,93.40
2019-01-11T23:53:32.923Z,93.40
2019-01-11T23:56:01.322Z,93.50
2019-01-11T23:58:37.531Z,93.60
